createdAt,value
2018-11-23T00:02:27.144Z,2.50
2018-11-23T00:04:54.577Z,2.50
2018-11-23T00:07:22.024Z,2.50
2018-11-23T00:09:49.449Z,2.40
2018-11-23T00:12:16.921Z,2.50
2018-11-23T00:14:44.357Z,2.30
2018-11-23T00:17:11.886Z,2.20
2018-11-23T00:19:39.345Z,2.30
2018-11-23T00:22:06.783Z,2.30
2018-11-23T00:24:34.222Z,2.40
2018-11-23T00:27:01.657Z,2.30
2018-11-23T00:29:29.321Z,2.20
2018-11-23T00:31:56.789Z,2.20
2018-11-23T00:34:24.261Z,2.10
2018-11-23T00:36:51.698Z,2.10
2018-11-23T00:39:19.162Z,2.00
2018-11-23T00:41:46.584Z,2.10
2018-11-23T00:44:14.044Z,2.10
2018-11-23T00:46:41.485Z,2.20
2018-11-23T00:49:08.926Z,2.20
2018-11-23T00:51:36.511Z,2.20
2018-11-23T00:54:04.081Z,2.10
2018-11-23T00:56:31.542Z,2.00
2018-11-23T00:58:59.013Z,1.90
2018-11-23T01:01:26.487Z,1.80
2018-11-23T01:03:53.930Z,1.70
2018-11-23T01:06:21.396Z,1.70
2018-11-23T01:08:48.842Z,1.70
2018-11-23T01:11:16.321Z,1.60
2018-11-23T01:13:43.809Z,1.80
2018-11-23T01:16:11.274Z,1.80
2018-11-23T01:18:38.734Z,1.90
2018-11-23T01:21:06.182Z,1.90
2018-11-23T01:23:33.633Z,1.90
2018-11-23T01:26:01.104Z,2.00
2018-11-23T01:28:28.571Z,1.90
2018-11-23T01:30:56.019Z,2.00
2018-11-23T01:33:23.490Z,1.80
2018-11-23T01:35:50.946Z,1.70
2018-11-23T01:38:18.519Z,1.60
2018-11-23T01:40:46.018Z,1.60
2018-11-23T01:43:13.561Z,1.40
2018-11-23T01:45:41.025Z,1.50
2018-11-23T01:48:08.506Z,1.40
2018-11-23T01:50:35.941Z,1.30
2018-11-23T01:53:03.409Z,1.40
2018-11-23T01:55:31.021Z,1.50
2018-11-23T01:57:58.450Z,1.50
2018-11-23T02:00:25.913Z,1.50
2018-11-23T02:02:53.394Z,1.60
2018-11-23T02:05:20.833Z,1.60
2018-11-23T02:07:48.294Z,1.60
2018-11-23T02:10:15.713Z,1.50
2018-11-23T02:12:43.219Z,1.50
2018-11-23T02:15:12.046Z,1.50
2018-11-23T02:17:39.509Z,1.40
2018-11-23T02:20:09.145Z,1.40
2018-11-23T02:22:36.594Z,1.30
2018-11-23T02:25:04.114Z,1.50
2018-11-23T02:27:31.558Z,1.40
2018-11-23T02:29:59.009Z,1.40
2018-11-23T02:32:26.466Z,1.50
2018-11-23T02:34:53.905Z,1.40
2018-11-23T02:37:21.405Z,1.20
2018-11-23T02:39:48.793Z,1.20
2018-11-23T02:42:16.242Z,1.30
2018-11-23T02:44:43.712Z,1.30
2018-11-23T02:47:11.146Z,1.20
2018-11-23T02:49:38.627Z,1.20
2018-11-23T02:52:06.069Z,1.20
2018-11-23T02:54:33.492Z,1.30
2018-11-23T02:57:00.974Z,1.30
2018-11-23T02:59:28.418Z,1.30
2018-11-23T03:01:55.858Z,1.30
2018-11-23T03:04:23.343Z,1.40
2018-11-23T03:06:50.777Z,1.40
2018-11-23T03:09:18.234Z,1.30
2018-11-23T03:11:45.665Z,1.20
2018-11-23T03:14:13.139Z,1.20
2018-11-23T03:16:40.598Z,1.20
2018-11-23T03:19:08.065Z,1.20
2018-11-23T03:21:35.509Z,1.20
2018-11-23T03:24:02.938Z,1.30
2018-11-23T03:26:30.629Z,1.30
2018-11-23T03:28:58.082Z,1.20
2018-11-23T03:31:25.514Z,1.10
2018-11-23T03:33:52.975Z,1.10
2018-11-23T03:36:20.425Z,1.10
2018-11-23T03:38:47.893Z,1.10
2018-11-23T03:41:15.361Z,1.20
2018-11-23T03:43:42.829Z,1.20
2018-11-23T03:46:10.284Z,1.10
2018-11-23T03:48:37.726Z,1.10
2018-11-23T03:51:05.822Z,1.10
2018-11-23T03:53:33.252Z,1.10
2018-11-23T03:56:00.759Z,1.20
2018-11-23T03:58:28.193Z,1.10
2018-11-23T04:00:55.651Z,1.10
2018-11-23T04:03:23.129Z,1.10
2018-11-23T04:05:50.623Z,1.00
2018-11-23T04:08:18.090Z,1.10
2018-11-23T04:10:45.716Z,1.10
2018-11-23T04:13:13.205Z,1.20
2018-11-23T04:15:40.672Z,1.20
2018-11-23T04:18:08.096Z,1.20
2018-11-23T04:20:35.552Z,1.30
2018-11-23T04:23:03.024Z,1.20
2018-11-23T04:25:30.457Z,1.10
2018-11-23T04:27:57.903Z,1.00
2018-11-23T04:30:25.361Z,0.90
2018-11-23T04:32:52.809Z,0.90
2018-11-23T04:35:20.270Z,0.90
2018-11-23T04:37:47.721Z,0.90
2018-11-23T04:40:15.228Z,1.00
2018-11-23T04:42:42.687Z,1.00
2018-11-23T04:45:10.161Z,1.00
2018-11-23T04:47:37.628Z,0.90
2018-11-23T04:50:06.024Z,0.90
2018-11-23T04:52:33.491Z,0.90
2018-11-23T04:55:00.942Z,1.00
2018-11-23T04:57:28.388Z,1.20
2018-11-23T04:59:55.844Z,1.10
2018-11-23T05:02:23.315Z,1.10
2018-11-23T05:04:50.956Z,1.10
2018-11-23T05:07:18.385Z,1.10
2018-11-23T05:09:45.818Z,1.10
2018-11-23T05:12:13.250Z,1.20
2018-11-23T05:14:40.717Z,1.30
2018-11-23T05:17:08.184Z,1.20
2018-11-23T05:19:35.693Z,1.10
2018-11-23T05:22:03.174Z,1.30
2018-11-23T05:24:30.789Z,1.30
2018-11-23T05:26:58.270Z,1.20
2018-11-23T05:29:25.725Z,1.30
2018-11-23T05:31:53.181Z,1.30
2018-11-23T05:34:20.662Z,1.20
2018-11-23T05:36:48.150Z,1.20
2018-11-23T05:39:15.582Z,1.20
2018-11-23T05:41:43.088Z,1.30
2018-11-23T05:44:10.554Z,1.30
2018-11-23T05:46:38.014Z,1.20
2018-11-23T05:49:05.484Z,1.10
2018-11-23T05:51:33.125Z,1.30
2018-11-23T05:54:00.550Z,1.20
2018-11-23T05:56:28.005Z,1.20
2018-11-23T05:58:55.465Z,1.10
2018-11-23T06:01:22.892Z,1.10
2018-11-23T06:03:50.317Z,1.10
2018-11-23T06:06:17.779Z,1.00
2018-11-23T06:08:45.233Z,1.10
2018-11-23T06:11:12.721Z,1.10
2018-11-23T06:13:40.157Z,1.20
2018-11-23T06:16:07.658Z,1.20
2018-11-23T06:18:35.093Z,1.30
2018-11-23T06:21:02.593Z,1.50
2018-11-23T06:23:30.034Z,1.60
2018-11-23T06:26:03.157Z,1.70
2018-11-23T06:28:30.637Z,1.70
2018-11-23T06:30:58.122Z,1.60
2018-11-23T06:33:32.430Z,1.60
2018-11-23T06:36:00.101Z,1.50
2018-11-23T06:38:27.556Z,1.20
2018-11-23T06:40:54.998Z,1.20
2018-11-23T06:43:22.437Z,1.10
2018-11-23T06:45:49.899Z,1.10
2018-11-23T06:48:18.403Z,1.10
2018-11-23T06:50:45.834Z,1.10
2018-11-23T06:53:13.296Z,1.10
2018-11-23T06:55:40.831Z,1.10
2018-11-23T06:58:08.961Z,1.30
2018-11-23T07:00:36.516Z,1.30
2018-11-23T07:03:04.026Z,1.30
2018-11-23T07:05:31.526Z,1.30
2018-11-23T07:07:59.053Z,1.40
2018-11-23T07:10:26.533Z,1.50
2018-11-23T07:12:54.638Z,1.60
2018-11-23T07:15:22.099Z,1.60
2018-11-23T07:17:49.586Z,1.60
2018-11-23T07:20:17.057Z,1.60
2018-11-23T07:22:44.538Z,1.60
2018-11-23T07:25:12.034Z,1.60
2018-11-23T07:27:39.509Z,1.80
2018-11-23T07:30:11.114Z,1.80
2018-11-23T07:32:38.647Z,1.80
2018-11-23T07:35:06.289Z,2.00
2018-11-23T07:37:33.790Z,1.80
2018-11-23T07:40:12.537Z,1.80
2018-11-23T07:42:40.013Z,1.90
2018-11-23T07:45:07.474Z,2.00
2018-11-23T07:47:34.957Z,2.00
2018-11-23T07:50:02.504Z,2.10
2018-11-23T07:52:29.975Z,2.10
2018-11-23T07:54:57.453Z,2.10
2018-11-23T07:57:24.954Z,2.20
2018-11-23T07:59:52.411Z,2.30
2018-11-23T08:02:19.874Z,2.40
2018-11-23T08:04:47.399Z,2.50
2018-11-23T08:07:15.789Z,2.60
2018-11-23T08:09:43.282Z,2.60
2018-11-23T08:12:10.716Z,2.60
2018-11-23T08:14:38.156Z,2.70
2018-11-23T08:17:05.877Z,2.80
2018-11-23T08:19:34.025Z,2.90
2018-11-23T08:22:01.467Z,2.90
2018-11-23T08:24:28.953Z,2.90
2018-11-23T08:26:56.458Z,3.00
2018-11-23T08:29:23.914Z,3.10
2018-11-23T08:31:51.405Z,3.10
2018-11-23T08:34:18.855Z,3.20
2018-11-23T08:36:46.292Z,3.30
2018-11-23T08:39:13.794Z,3.40
2018-11-23T08:41:41.258Z,3.50
2018-11-23T08:44:08.765Z,3.60
2018-11-23T08:46:36.198Z,3.70
2018-11-23T08:49:03.900Z,3.80
2018-11-23T08:51:31.382Z,3.80
2018-11-23T08:53:58.852Z,3.90
2018-11-23T08:56:26.333Z,4.00
2018-11-23T08:58:53.782Z,4.10
2018-11-23T09:01:21.290Z,4.20
2018-11-23T09:03:48.901Z,4.30
2018-11-23T09:06:16.415Z,4.40
2018-11-23T09:08:43.861Z,4.50
2018-11-23T09:11:11.396Z,4.50
2018-11-23T09:13:38.950Z,4.60
2018-11-23T09:18:40.255Z,4.70
2018-11-23T09:21:07.389Z,4.90
2018-11-23T09:23:34.951Z,5.00
2018-11-23T09:26:03.406Z,5.20
2018-11-23T09:28:30.881Z,5.30
2018-11-23T09:30:58.318Z,5.30
2018-11-23T09:33:25.857Z,5.40
2018-11-23T09:35:53.290Z,5.50
2018-11-23T09:38:20.772Z,5.50
2018-11-23T09:40:48.278Z,5.60
2018-11-23T09:43:15.788Z,5.60
2018-11-23T09:45:43.250Z,5.60
2018-11-23T09:48:10.731Z,5.80
2018-11-23T09:50:38.232Z,5.70
2018-11-23T09:53:05.734Z,5.80
2018-11-23T09:55:33.233Z,5.80
2018-11-23T09:58:00.708Z,5.80
2018-11-23T10:00:28.205Z,5.90
2018-11-23T10:02:55.685Z,5.90
2018-11-23T10:05:23.161Z,5.90
2018-11-23T10:07:50.677Z,5.90
2018-11-23T10:10:18.174Z,6.00
2018-11-23T10:12:45.701Z,6.00
2018-11-23T10:15:13.182Z,6.00
2018-11-23T10:17:40.665Z,6.00
2018-11-23T10:20:09.685Z,5.90
2018-11-23T10:22:37.162Z,5.90
2018-11-23T10:25:06.054Z,6.00
2018-11-23T10:27:33.555Z,6.10
2018-11-23T10:30:01.345Z,6.10
2018-11-23T10:32:28.525Z,6.30
2018-11-23T10:34:56.058Z,6.20
2018-11-23T10:37:23.519Z,6.40
2018-11-23T10:39:50.977Z,6.40
2018-11-23T10:42:18.413Z,6.50
2018-11-23T10:44:45.885Z,6.50
2018-11-23T10:47:13.349Z,6.60
2018-11-23T10:49:40.821Z,6.70
2018-11-23T10:52:08.284Z,6.80
2018-11-23T10:54:35.756Z,6.90
2018-11-23T10:57:03.349Z,6.90
2018-11-23T10:59:30.769Z,7.00
2018-11-23T11:01:58.222Z,7.00
2018-11-23T11:04:25.694Z,7.00
2018-11-23T11:06:53.168Z,7.10
2018-11-23T11:09:20.652Z,7.10
2018-11-23T11:11:48.176Z,7.20
2018-11-23T11:14:15.620Z,7.20
2018-11-23T11:16:43.104Z,7.20
2018-11-23T11:19:10.618Z,7.30
2018-11-23T11:21:38.109Z,7.30
2018-11-23T11:24:05.621Z,7.30
2018-11-23T11:26:33.146Z,7.30
2018-11-23T11:29:00.673Z,7.40
2018-11-23T11:31:28.201Z,7.40
2018-11-23T11:33:56.263Z,7.50
2018-11-23T11:36:23.717Z,7.50
2018-11-23T11:38:51.808Z,7.60
2018-11-23T11:41:19.286Z,7.70
2018-11-23T11:43:46.749Z,7.60
2018-11-23T11:46:14.198Z,7.60
2018-11-23T11:48:41.656Z,7.60
2018-11-23T11:51:09.182Z,7.60
2018-11-23T11:53:36.617Z,7.60
2018-11-23T11:56:04.291Z,7.70
2018-11-23T11:58:31.864Z,7.70
2018-11-23T12:00:59.334Z,7.70
2018-11-23T12:03:26.859Z,7.70
2018-11-23T12:05:54.345Z,7.70
2018-11-23T12:08:21.825Z,7.70
2018-11-23T12:10:49.282Z,7.70
2018-11-23T12:13:17.438Z,7.70
2018-11-23T12:15:45.003Z,7.80
2018-11-23T12:18:12.501Z,7.80
2018-11-23T12:20:40.065Z,7.80
2018-11-23T12:23:07.549Z,7.90
2018-11-23T12:25:35.023Z,7.90
2018-11-23T12:28:02.519Z,8.00
2018-11-23T12:30:29.969Z,8.00
2018-11-23T12:32:57.454Z,8.00
2018-11-23T12:35:24.969Z,8.00
2018-11-23T12:37:52.589Z,8.00
2018-11-23T12:40:20.276Z,7.90
2018-11-23T12:42:47.739Z,7.90
2018-11-23T12:45:15.291Z,7.80
2018-11-23T12:47:42.778Z,7.90
2018-11-23T12:50:14.488Z,7.90
2018-11-23T12:52:42.013Z,7.80
2018-11-23T12:55:09.494Z,7.90
2018-11-23T12:57:36.999Z,7.90
2018-11-23T13:00:08.854Z,7.90
2018-11-23T13:02:36.351Z,8.00
2018-11-23T13:05:04.137Z,8.00
2018-11-23T13:07:31.622Z,8.00
2018-11-23T13:09:59.136Z,8.00
2018-11-23T13:12:26.622Z,7.90
2018-11-23T13:14:54.119Z,7.90
2018-11-23T13:17:21.614Z,7.90
2018-11-23T13:19:49.099Z,7.90
2018-11-23T13:22:16.606Z,7.90
2018-11-23T13:24:44.133Z,7.90
2018-11-23T13:27:11.625Z,7.90
2018-11-23T13:29:40.057Z,8.00
2018-11-23T13:32:07.617Z,8.00
2018-11-23T13:34:35.109Z,8.00
2018-11-23T13:37:02.608Z,8.00
2018-11-23T13:39:31.139Z,8.10
2018-11-23T13:41:57.570Z,8.10
2018-11-23T13:44:25.042Z,8.10
2018-11-23T13:46:52.559Z,8.20
2018-11-23T13:49:19.990Z,8.10
2018-11-23T13:51:47.457Z,8.10
2018-11-23T13:54:14.921Z,8.10
2018-11-23T13:56:42.450Z,8.00
2018-11-23T13:59:09.976Z,8.00
2018-11-23T14:01:37.433Z,8.10
2018-11-23T14:04:05.258Z,8.00
2018-11-23T14:06:33.709Z,8.00
2018-11-23T14:09:01.252Z,8.00
2018-11-23T14:11:28.726Z,7.90
2018-11-23T14:13:56.208Z,8.00
2018-11-23T14:16:23.666Z,7.80
2018-11-23T14:18:51.235Z,7.80
2018-11-23T14:21:18.782Z,7.80
2018-11-23T14:23:46.353Z,7.70
2018-11-23T14:26:13.877Z,7.70
2018-11-23T14:28:41.364Z,7.80
2018-11-23T14:31:08.821Z,7.60
2018-11-23T14:33:36.353Z,7.60
2018-11-23T14:36:04.331Z,7.60
2018-11-23T14:38:31.867Z,7.60
2018-11-23T14:40:59.337Z,7.50
2018-11-23T14:43:26.840Z,7.50
2018-11-23T14:45:54.400Z,7.40
2018-11-23T14:48:21.882Z,7.40
2018-11-23T14:50:49.336Z,7.40
2018-11-23T14:53:16.790Z,7.30
2018-11-23T14:55:44.289Z,7.30
2018-11-23T14:58:11.760Z,7.30
2018-11-23T15:00:39.258Z,7.30
2018-11-23T15:03:06.745Z,7.20
2018-11-23T15:05:34.221Z,7.20
2018-11-23T15:08:01.691Z,7.10
2018-11-23T15:10:29.206Z,7.10
2018-11-23T15:12:56.661Z,7.10
2018-11-23T15:15:24.141Z,7.00
2018-11-23T15:17:51.791Z,7.00
2018-11-23T15:20:20.669Z,7.00
2018-11-23T15:22:50.085Z,7.00
2018-11-23T15:25:17.575Z,6.90
2018-11-23T15:27:45.570Z,6.90
2018-11-23T15:30:16.190Z,6.90
2018-11-23T15:32:43.686Z,6.80
2018-11-23T15:35:11.258Z,6.80
2018-11-23T15:37:38.758Z,6.70
2018-11-23T15:40:12.735Z,6.70
2018-11-23T15:42:40.278Z,6.60
2018-11-23T15:45:09.250Z,6.60
2018-11-23T15:47:36.722Z,6.50
2018-11-23T15:50:04.671Z,6.40
2018-11-23T15:52:32.168Z,6.40
2018-11-23T15:54:59.592Z,6.30
2018-11-23T15:57:27.098Z,6.30
2018-11-23T15:59:54.615Z,6.20
2018-11-23T16:02:22.082Z,6.20
2018-11-23T16:04:49.543Z,6.20
2018-11-23T16:07:17.001Z,6.20
2018-11-23T16:09:44.480Z,6.20
2018-11-23T16:12:11.986Z,6.20
2018-11-23T16:14:39.509Z,6.20
2018-11-23T16:17:07.010Z,6.10
2018-11-23T16:19:34.467Z,6.00
2018-11-23T16:22:01.983Z,5.80
2018-11-23T16:24:29.445Z,5.80
2018-11-23T16:26:56.966Z,5.80
2018-11-23T16:29:24.546Z,5.80
2018-11-23T16:31:52.017Z,5.60
2018-11-23T16:34:19.526Z,5.40
2018-11-23T16:36:47.009Z,5.40
2018-11-23T16:39:14.470Z,5.40
2018-11-23T16:41:42.017Z,5.40
2018-11-23T16:44:09.481Z,5.20
2018-11-23T16:46:37.421Z,5.20
2018-11-23T16:49:04.954Z,5.30
2018-11-23T16:51:32.478Z,5.30
2018-11-23T16:54:00.028Z,5.30
2018-11-23T16:56:27.527Z,5.20
2018-11-23T16:58:55.003Z,5.30
2018-11-23T17:01:22.528Z,5.20
2018-11-23T17:03:50.002Z,5.20
2018-11-23T17:06:17.510Z,5.30
2018-11-23T17:08:45.070Z,5.30
2018-11-23T17:11:12.535Z,5.30
2018-11-23T17:13:40.031Z,5.30
2018-11-23T17:16:07.507Z,5.30
2018-11-23T17:18:34.978Z,5.10
2018-11-23T17:21:02.625Z,5.10
2018-11-23T17:23:30.075Z,5.10
2018-11-23T17:25:57.579Z,5.10
2018-11-23T17:28:25.062Z,5.10
2018-11-23T17:30:52.515Z,5.10
2018-11-23T17:33:19.994Z,5.10
2018-11-23T17:35:47.477Z,5.00
2018-11-23T17:38:15.082Z,5.00
2018-11-23T17:40:42.578Z,4.90
2018-11-23T17:43:10.068Z,4.90
2018-11-23T17:45:37.977Z,4.90
2018-11-23T17:48:05.704Z,4.80
2018-11-23T17:50:33.208Z,4.80
2018-11-23T17:53:00.739Z,4.80
2018-11-23T17:55:28.211Z,4.80
2018-11-23T17:57:55.687Z,4.90
2018-11-23T18:00:23.162Z,4.90
2018-11-23T18:02:50.637Z,4.90
2018-11-23T18:05:18.109Z,4.90
2018-11-23T18:07:45.979Z,4.90
2018-11-23T18:10:14.127Z,4.90
2018-11-23T18:12:41.575Z,4.90
2018-11-23T18:15:10.534Z,4.80
2018-11-23T18:17:38.049Z,4.90
2018-11-23T18:20:08.859Z,5.00
2018-11-23T18:22:36.345Z,4.90
2018-11-23T18:25:04.586Z,4.90
2018-11-23T18:27:32.030Z,4.90
2018-11-23T18:29:59.538Z,4.90
2018-11-23T18:32:27.005Z,4.90
2018-11-23T18:34:54.482Z,5.00
2018-11-23T18:37:21.942Z,4.90
2018-11-23T18:39:49.486Z,4.90
2018-11-23T18:42:16.952Z,4.90
2018-11-23T18:44:44.462Z,4.90
2018-11-23T18:47:11.940Z,4.90
2018-11-23T18:49:39.424Z,5.00
2018-11-23T18:52:06.878Z,5.00
2018-11-23T18:54:34.350Z,5.00
2018-11-23T18:57:01.818Z,5.00
2018-11-23T18:59:29.290Z,5.10
2018-11-23T19:01:56.763Z,5.20
2018-11-23T19:04:24.218Z,5.20
2018-11-23T19:06:51.680Z,5.20
2018-11-23T19:09:19.234Z,5.20
2018-11-23T19:11:46.717Z,5.30
2018-11-23T19:14:14.188Z,5.20
2018-11-23T19:16:41.737Z,5.20
2018-11-23T19:19:09.184Z,5.20
2018-11-23T19:21:36.653Z,5.30
2018-11-23T19:24:04.394Z,5.30
2018-11-23T19:26:31.853Z,5.30
2018-11-23T19:28:59.371Z,5.30
2018-11-23T19:31:26.839Z,5.30
2018-11-23T19:33:59.126Z,5.20
2018-11-23T19:36:21.806Z,5.10
2018-11-23T19:38:49.684Z,5.10
2018-11-23T19:41:17.153Z,5.20
2018-11-23T19:43:44.624Z,5.20
2018-11-23T19:46:12.094Z,5.10
2018-11-23T19:48:39.544Z,5.10
2018-11-23T19:51:07.035Z,5.00
2018-11-23T19:53:34.485Z,5.10
2018-11-23T19:56:01.967Z,5.00
2018-11-23T19:58:29.435Z,5.10
2018-11-23T20:00:56.926Z,5.10
2018-11-23T20:03:24.422Z,5.00
2018-11-23T20:05:51.949Z,5.10
2018-11-23T20:08:19.414Z,5.10
2018-11-23T20:10:46.896Z,5.20
2018-11-23T20:13:14.353Z,5.20
2018-11-23T20:15:41.833Z,5.20
2018-11-23T20:18:09.318Z,5.10
2018-11-23T20:20:37.339Z,5.20
2018-11-23T20:23:04.856Z,5.10
2018-11-23T20:25:32.311Z,5.00
2018-11-23T20:27:59.765Z,4.90
2018-11-23T20:30:27.230Z,4.80
2018-11-23T20:32:54.699Z,4.80
2018-11-23T20:35:22.515Z,4.90
2018-11-23T20:37:50.011Z,5.00
2018-11-23T20:40:20.227Z,5.00
2018-11-23T20:42:47.714Z,5.00
2018-11-23T20:45:15.188Z,5.10
2018-11-23T20:47:42.681Z,5.00
2018-11-23T20:50:11.401Z,4.90
2018-11-23T20:52:38.871Z,4.90
2018-11-23T20:55:09.023Z,5.00
2018-11-23T20:57:36.481Z,5.10
2018-11-23T21:00:08.082Z,5.10
2018-11-23T21:02:35.566Z,5.00
2018-11-23T21:05:03.858Z,5.00
2018-11-23T21:07:31.312Z,5.00
2018-11-23T21:09:58.795Z,5.00
2018-11-23T21:12:26.301Z,4.90
2018-11-23T21:14:53.730Z,5.00
2018-11-23T21:17:21.210Z,5.00
2018-11-23T21:19:48.657Z,5.00
2018-11-23T21:22:16.123Z,5.00
2018-11-23T21:24:43.577Z,5.10
2018-11-23T21:27:11.046Z,5.20
2018-11-23T21:29:38.513Z,5.10
2018-11-23T21:32:05.976Z,5.20
2018-11-23T21:34:33.582Z,5.10
2018-11-23T21:37:01.016Z,5.20
2018-11-23T21:39:28.497Z,5.20
2018-11-23T21:41:55.944Z,5.30
2018-11-23T21:44:23.386Z,5.10
2018-11-23T21:46:50.863Z,5.10
2018-11-23T21:49:18.344Z,5.10
2018-11-23T21:51:45.802Z,5.20
2018-11-23T21:54:13.362Z,5.20
2018-11-23T21:56:40.809Z,5.10
2018-11-23T21:59:08.285Z,5.10
2018-11-23T22:01:35.763Z,5.10
2018-11-23T22:04:06.553Z,5.20
2018-11-23T22:06:30.702Z,5.20
2018-11-23T22:08:58.235Z,5.20
2018-11-23T22:11:25.689Z,5.20
2018-11-23T22:13:53.129Z,5.20
2018-11-23T22:16:20.612Z,5.20
2018-11-23T22:18:48.183Z,5.20
2018-11-23T22:21:15.611Z,5.30
2018-11-23T22:23:43.077Z,5.20
2018-11-23T22:26:10.606Z,5.20
2018-11-23T22:28:38.067Z,5.20
2018-11-23T22:31:05.789Z,5.10
2018-11-23T22:33:33.246Z,5.20
2018-11-23T22:36:00.722Z,5.20
2018-11-23T22:38:28.219Z,5.20
2018-11-23T22:40:55.742Z,5.10
2018-11-23T22:43:23.196Z,5.10
2018-11-23T22:45:50.669Z,5.10
2018-11-23T22:48:18.137Z,5.00
2018-11-23T22:50:45.651Z,5.00
2018-11-23T22:53:13.217Z,5.10
2018-11-23T22:55:40.710Z,5.10
2018-11-23T22:58:08.165Z,5.00
2018-11-23T23:00:35.657Z,5.00
2018-11-23T23:03:03.147Z,5.00
2018-11-23T23:05:30.637Z,5.00
2018-11-23T23:07:58.125Z,5.00
2018-11-23T23:10:25.585Z,5.00
2018-11-23T23:12:53.090Z,5.10
2018-11-23T23:15:20.601Z,5.20
2018-11-23T23:17:48.062Z,5.10
2018-11-23T23:20:16.796Z,5.20
2018-11-23T23:22:44.262Z,5.20
2018-11-23T23:25:12.250Z,5.10
2018-11-23T23:27:39.785Z,5.20
2018-11-23T23:30:11.108Z,5.20
2018-11-23T23:32:38.725Z,5.20
2018-11-23T23:35:07.405Z,5.20
2018-11-23T23:37:34.926Z,5.20
2018-11-23T23:40:02.457Z,5.30
2018-11-23T23:42:29.920Z,5.40
2018-11-23T23:44:57.383Z,5.30
2018-11-23T23:47:24.878Z,5.40
2018-11-23T23:49:52.452Z,5.50
2018-11-23T23:52:20.309Z,5.40
2018-11-23T23:54:47.847Z,5.30
2018-11-23T23:57:15.313Z,5.40
2018-11-23T23:59:42.884Z,5.40
